Seeley, CA

6:59 PM PDT on August 21, 2014 (GMT -0700)
El Centro Naval Air Facility | Change Station
CLOSE
Current Station
Airport
Location: El Centro,
Elevation: -43 ft
Nearby Weather Stations

Elev -43 ft 32.83 °N, 115.66 °W | Updated 3 minutes ago

Mostly Cloudy
Mostly Cloudy
74 °F
Feels Like 74 °F
N
15
Wind Variable Wind from ESE

Today
High -- | Low -- °F
--% Chance of Precip.
Yesterday
High -- | Low -- °F
Precip. -- in
6:10 AM 7:20 PM
Waning Crescent, 11% visible
Pressure 29.96 in
Visibility 10.0 miles
Clouds Few 7000 ft
Scattered Clouds 10000 ft
Mostly Cloudy 12000 ft
Mostly Cloudy 18000 ft
Mostly Cloudy 25000 ft
Dew Point 65 °F
Humidity 73%
Rainfall 0.15 in
Snow Depth Not available.
UV 0 out of 12
Pollen 6.60 out of 12
Ozone Good
PM2.5 Good
Flu Activity Not available.
METAR KNJK 220156Z 12013KT 10SM FEW070 SCT100 BKN120 BKN180 BKN250 23/18 A2991 RMK AO2 SLP144 VCSH E CB DSNT SE-S AND NW MDT CU OMTNS SW-W T02330183 $

More Conditions Fewer Conditions

Pressure 29.96 in
Visibility 10.0 miles
Clouds Few 7000 ft
Scattered Clouds 10000 ft
Mostly Cloudy 12000 ft
Mostly Cloudy 18000 ft
Mostly Cloudy 25000 ft
Dew Point 65 °F
Humidity 73%
Rainfall 0.15 in
Snow Depth Not available.
UV 0 out of 12
Pollen 6.60 out of 12
Ozone Good
PM2.5 Good
Flu Activity Not available.
METAR KNJK 220156Z 12013KT 10SM FEW070 SCT100 BKN120 BKN180 BKN250 23/18 A2991 RMK AO2 SLP144 VCSH E CB DSNT SE-S AND NW MDT CU OMTNS SW-W T02330183 $

More Conditions Fewer Conditions

10-Day Weather Forecast

Almanac

Astronomy

Aug. 21, 2014 Rise Set
Actual Time 6:10 AM PDT 7:20 PM PDT
Civil Twilight 5:44 AM PDT 7:46 PM PDT
Nautical Twilight 5:13 AM PDT 8:16 PM PDT
Astronomical Twilight 4:42 AM PDT 8:48 PM PDT
Moon 2:49 AM PDT (8/21) 4:48 PM PDT (8/21)
Length of Visible Light 14h 02m
Length of Day
13h 10m
Tomorrow will be 1m 50s shorter.
Waning Crescent, 11% of the Moon is Illuminated
Today
Waning Crescent
Aug 25
New
Sep 2
First Quarter
Sep 8
Full
Sep 15
Last Quarter

Today's Extremes

State Highs State Lows

Community

WunderPhotos

Upload Photos

1,746,105 photos uploaded!

WunderBlogs® & News

Nearby

Air Quality

  Air Quality AQ Index Pollutant
Yesterday Moderate
PM10
Yesterday Good
OZONE
Current Good
PM2.5
Current Good
OZONE
Thursday Good
OZONE
Friday Moderate
OZONE
Saturday Moderate
OZONE
Sunday Moderate
OZONE
Monday Moderate
OZONE
Tuesday Moderate
OZONE

Snow Depth

Station Depth Elevation
Leavitt Lake 0 in 9400 ft
Leavitt Meadows 0 in 7200 ft
CSS Lab 0 in 6900 ft
Adin Mountain 0 in 6200 ft

Earthquake Activity

City Distance Mag. Time & Date
Yucca Valley, California 111 miles 3.8 8:57 PM PDT
2014-08-14
Minimum magnitude displayed is 2.5.

Coastal Water Temperatures

Place Temperature
No Stations Reporting

Nearby Weather Stations